sensor_id;sensor_type;location;lat;lon;timestamp;pressure;altitude;pressure_sealevel;temperature;humidity
70902;BME280;58548;47.210;8.618;2023-06-26T00:02:22;94298.50;;;26.84;34.59
70902;BME280;58548;47.210;8.618;2023-06-26T00:04:50;94317.66;;;26.91;34.40
70902;BME280;58548;47.210;8.618;2023-06-26T00:07:20;94280.69;;;26.69;34.80
70902;BME280;58548;47.210;8.618;2023-06-26T00:09:48;94319.34;;;26.87;34.61
70902;BME280;58548;47.210;8.618;2023-06-26T00:12:19;94306.00;;;26.82;34.40
70902;BME280;58548;47.210;8.618;2023-06-26T00:14:47;94265.06;;;26.52;34.91
70902;BME280;58548;47.210;8.618;2023-06-26T00:17:15;94310.31;;;26.78;33.89
70902;BME280;58548;47.210;8.618;2023-06-26T00:19:43;94200.22;;;26.07;34.19
70902;BME280;58548;47.210;8.618;2023-06-26T00:22:14;94190.44;;;25.97;34.92
70902;BME280;58548;47.210;8.618;2023-06-26T00:24:40;94322.94;;;26.77;34.83
70902;BME280;58548;47.210;8.618;2023-06-26T00:27:06;94316.75;;;26.77;34.53
70902;BME280;58548;47.210;8.618;2023-06-26T00:29:32;94212.53;;;26.08;34.12
70902;BME280;58548;47.210;8.618;2023-06-26T00:31:58;94305.66;;;26.64;34.41
70902;BME280;58548;47.210;8.618;2023-06-26T00:34:24;94211.28;;;26.00;34.84
70902;BME280;58548;47.210;8.618;2023-06-26T00:36:49;94325.91;;;26.71;34.02
70902;BME280;58548;47.210;8.618;2023-06-26T00:39:17;94323.75;;;26.73;34.82
70902;BME280;58548;47.210;8.618;2023-06-26T00:41:43;94325.91;;;26.71;34.22
70902;BME280;58548;47.210;8.618;2023-06-26T00:44:12;94326.69;;;26.76;35.06
70902;BME280;58548;47.210;8.618;2023-06-26T00:46:40;94219.47;;;26.09;34.96
70902;BME280;58548;47.210;8.618;2023-06-26T00:49:05;94282.16;;;26.56;34.29
70902;BME280;58548;47.210;8.618;2023-06-26T00:51:36;94219.13;;;26.21;33.94
70902;BME280;58548;47.210;8.618;2023-06-26T00:54:02;94311.59;;;26.86;34.83
70902;BME280;58548;47.210;8.618;2023-06-26T00:56:33;94222.59;;;26.21;34.27
70902;BME280;58548;47.210;8.618;2023-06-26T00:59:02;94221.19;;;26.29;34.42
70902;BME280;58548;47.210;8.618;2023-06-26T01:01:30;94231.03;;;26.33;33.84
70902;BME280;58548;47.210;8.618;2023-06-26T01:04:01;94325.38;;;26.98;35.00
70902;BME280;58548;47.210;8.618;2023-06-26T01:06:31;94243.22;;;26.45;34.46
70902;BME280;58548;47.210;8.618;2023-06-26T01:09:05;94249.09;;;26.47;34.72
70902;BME280;58548;47.210;8.618;2023-06-26T01:11:36;94334.72;;;27.01;33.92
70902;BME280;58548;47.210;8.618;2023-06-26T01:14:04;94337.09;;;27.02;33.73
70902;BME280;58548;47.210;8.618;2023-06-26T01:16:31;94331.47;;;27.04;33.68
70902;BME280;58548;47.210;8.618;2023-06-26T01:18:58;94329.81;;;27.08;34.49
70902;BME280;58548;47.210;8.618;2023-06-26T01:21:25;94337.75;;;27.13;33.60
70902;BME280;58548;47.210;8.618;2023-06-26T01:26:43;94247.75;;;26.69;34.50
70902;BME280;58548;47.210;8.618;2023-06-26T01:29:15;94216.44;;;26.45;33.36
70902;BME280;58548;47.210;8.618;2023-06-26T01:31:44;94326.09;;;27.23;33.56
70902;BME280;58548;47.210;8.618;2023-06-26T01:34:17;94336.50;;;27.30;34.04
70902;BME280;58548;47.210;8.618;2023-06-26T01:36:45;94288.84;;;27.02;34.07
70902;BME280;58548;47.210;8.618;2023-06-26T01:39:19;94227.13;;;26.69;33.55
70902;BME280;58548;47.210;8.618;2023-06-26T01:41:45;94327.94;;;27.28;33.24
70902;BME280;58548;47.210;8.618;2023-06-26T01:44:29;94318.94;;;27.18;34.28
70902;BME280;58548;47.210;8.618;2023-06-26T01:47:05;94303.06;;;27.03;33.67
70902;BME280;58548;47.210;8.618;2023-06-26T01:49:33;94342.44;;;27.27;33.71
70902;BME280;58548;47.210;8.618;2023-06-26T01:54:47;94309.50;;;27.02;33.20
70902;BME280;58548;47.210;8.618;2023-06-26T01:57:17;94261.25;;;26.58;34.21
70902;BME280;58548;47.210;8.618;2023-06-26T01:59:46;94320.22;;;27.02;34.16
70902;BME280;58548;47.210;8.618;2023-06-26T02:02:15;94232.34;;;26.36;33.34
70902;BME280;58548;47.210;8.618;2023-06-26T02:04:43;94328.91;;;26.93;34.06
70902;BME280;58548;47.210;8.618;2023-06-26T02:07:08;94350.22;;;27.04;33.79
70902;BME280;58548;47.210;8.618;2023-06-26T02:09:35;94354.56;;;27.00;33.92
70902;BME280;58548;47.210;8.618;2023-06-26T02:12:01;94348.19;;;26.96;33.49
70902;BME280;58548;47.210;8.618;2023-06-26T02:14:26;94302.47;;;26.62;34.50
70902;BME280;58548;47.210;8.618;2023-06-26T02:16:52;94279.63;;;26.46;33.71
70902;BME280;58548;47.210;8.618;2023-06-26T02:19:21;94353.66;;;26.85;33.94
70902;BME280;58548;47.210;8.618;2023-06-26T02:21:53;94354.75;;;26.84;34.06
70902;BME280;58548;47.210;8.618;2023-06-26T02:24:21;94257.09;;;26.23;34.40
70902;BME280;58548;47.210;8.618;2023-06-26T02:26:49;94294.88;;;26.45;34.29
70902;BME280;58548;47.210;8.618;2023-06-26T02:29:18;94269.19;;;26.20;34.90
70902;BME280;58548;47.210;8.618;2023-06-26T02:31:44;94254.56;;;26.12;34.47
70902;BME280;58548;47.210;8.618;2023-06-26T02:34:10;94331.75;;;26.54;35.51
70902;BME280;58548;47.210;8.618;2023-06-26T02:36:38;94252.28;;;25.95;35.12
70902;BME280;58548;47.210;8.618;2023-06-26T02:39:08;94330.03;;;26.39;35.62
70902;BME280;58548;47.210;8.618;2023-06-26T02:41:37;94248.59;;;25.86;35.40
70902;BME280;58548;47.210;8.618;2023-06-26T02:44:05;94359.66;;;26.47;35.08
70902;BME280;58548;47.210;8.618;2023-06-26T02:46:32;94254.28;;;25.79;35.05
70902;BME280;58548;47.210;8.618;2023-06-26T02:49:03;94346.13;;;26.33;35.29
70902;BME280;58548;47.210;8.618;2023-06-26T02:51:31;94348.53;;;26.35;35.04
70902;BME280;58548;47.210;8.618;2023-06-26T02:53:57;94339.22;;;26.27;34.92
70902;BME280;58548;47.210;8.618;2023-06-26T02:56:28;94353.94;;;26.30;35.06
70902;BME280;58548;47.210;8.618;2023-06-26T02:58:57;94349.44;;;26.25;35.22
70902;BME280;58548;47.210;8.618;2023-06-26T03:01:23;94251.53;;;25.60;35.61
70902;BME280;58548;47.210;8.618;2023-06-26T03:03:52;94353.72;;;26.26;35.89
70902;BME280;58548;47.210;8.618;2023-06-26T03:06:18;94219.59;;;25.34;35.29
70902;BME280;58548;47.210;8.618;2023-06-26T03:08:46;94324.47;;;26.00;35.34
70902;BME280;58548;47.210;8.618;2023-06-26T03:11:12;94357.50;;;26.20;35.45
70902;BME280;58548;47.210;8.618;2023-06-26T03:13:38;94252.16;;;25.47;35.57
70902;BME280;58548;47.210;8.618;2023-06-26T03:16:06;94259.66;;;25.44;36.38
70902;BME280;58548;47.210;8.618;2023-06-26T03:18:32;94353.88;;;26.06;35.21
70902;BME280;58548;47.210;8.618;2023-06-26T03:21:01;94273.81;;;25.45;35.85
70902;BME280;58548;47.210;8.618;2023-06-26T03:23:27;94348.28;;;25.97;35.86
70902;BME280;58548;47.210;8.618;2023-06-26T03:25:55;94353.19;;;25.89;35.52
70902;BME280;58548;47.210;8.618;2023-06-26T03:28:28;94328.94;;;25.76;36.22
70902;BME280;58548;47.210;8.618;2023-06-26T03:30:54;94225.72;;;25.00;35.45
70902;BME280;58548;47.210;8.618;2023-06-26T03:33:22;94356.19;;;25.83;35.40
70902;BME280;58548;47.210;8.618;2023-06-26T03:35:47;94357.25;;;25.82;35.82
70902;BME280;58548;47.210;8.618;2023-06-26T03:38:15;94287.75;;;25.32;36.15
70902;BME280;58548;47.210;8.618;2023-06-26T03:40:46;94268.09;;;25.17;36.30
70902;BME280;58548;47.210;8.618;2023-06-26T03:43:12;94369.06;;;25.76;35.62
70902;BME280;58548;47.210;8.618;2023-06-26T03:45:43;94253.44;;;25.09;36.49
70902;BME280;58548;47.210;8.618;2023-06-26T03:48:08;94360.53;;;25.73;35.94
70902;BME280;58548;47.210;8.618;2023-06-26T03:50:39;94270.53;;;25.13;36.33
70902;BME280;58548;47.210;8.618;2023-06-26T03:53:07;94183.47;;;24.57;35.92
70902;BME280;58548;47.210;8.618;2023-06-26T03:55:33;94339.25;;;25.58;36.79
70902;BME280;58548;47.210;8.618;2023-06-26T03:58:04;94270.75;;;25.17;36.82
70902;BME280;58548;47.210;8.618;2023-06-26T04:00:32;94254.06;;;24.96;36.25
70902;BME280;58548;47.210;8.618;2023-06-26T04:02:58;94364.78;;;25.74;36.92
70902;BME280;58548;47.210;8.618;2023-06-26T04:05:24;94369.63;;;25.72;36.14
70902;BME280;58548;47.210;8.618;2023-06-26T04:07:51;94375.25;;;25.71;36.31
70902;BME280;58548;47.210;8.618;2023-06-26T04:10:17;94379.78;;;25.70;37.15
70902;BME280;58548;47.210;8.618;2023-06-26T04:12:43;94280.44;;;25.08;36.71
70902;BME280;58548;47.210;8.618;2023-06-26T04:15:11;94270.03;;;25.06;37.01
70902;BME280;58548;47.210;8.618;2023-06-26T04:17:44;94370.38;;;25.78;36.33
70902;BME280;58548;47.210;8.618;2023-06-26T04:20:10;94355.19;;;25.68;36.55
70902;BME280;58548;47.210;8.618;2023-06-26T04:22:36;94307.75;;;25.44;36.50
70902;BME280;58548;47.210;8.618;2023-06-26T04:25:04;94376.97;;;25.91;37.00
70902;BME280;58548;47.210;8.618;2023-06-26T04:27:30;94370.28;;;25.94;37.09
70902;BME280;58548;47.210;8.618;2023-06-26T04:29:59;94346.03;;;25.80;37.20
70902;BME280;58548;47.210;8.618;2023-06-26T04:32:25;94357.16;;;25.92;37.14
70902;BME280;58548;47.210;8.618;2023-06-26T04:34:51;94369.34;;;26.09;36.41
70902;BME280;58548;47.210;8.618;2023-06-26T04:37:19;94376.81;;;26.17;36.26
70902;BME280;58548;47.210;8.618;2023-06-26T04:39:45;94369.53;;;26.23;36.31
70902;BME280;58548;47.210;8.618;2023-06-26T04:42:14;94275.03;;;25.63;36.33
70902;BME280;58548;47.210;8.618;2023-06-26T04:44:40;94365.22;;;26.27;36.95
70902;BME280;58548;47.210;8.618;2023-06-26T04:47:11;94375.50;;;26.44;36.92
70902;BME280;58548;47.210;8.618;2023-06-26T04:49:39;94320.09;;;26.15;37.19
70902;BME280;58548;47.210;8.618;2023-06-26T04:52:08;94293.63;;;26.08;36.96
70902;BME280;58548;47.210;8.618;2023-06-26T04:54:37;94287.19;;;26.14;36.36
70902;BME280;58548;47.210;8.618;2023-06-26T04:57:08;94362.34;;;26.72;36.93
70902;BME280;58548;47.210;8.618;2023-06-26T04:59:34;94363.88;;;26.83;37.03
70902;BME280;58548;47.210;8.618;2023-06-26T05:02:05;94276.47;;;26.39;36.28
70902;BME280;58548;47.210;8.618;2023-06-26T05:04:30;94377.97;;;27.13;36.43
70902;BME280;58548;47.210;8.618;2023-06-26T05:06:59;94362.50;;;27.10;36.58
70902;BME280;58548;47.210;8.618;2023-06-26T05:09:25;94286.34;;;26.68;36.94
70902;BME280;58548;47.210;8.618;2023-06-26T05:11:50;94372.34;;;27.34;36.52
70902;BME280;58548;47.210;8.618;2023-06-26T05:14:16;94372.22;;;27.44;36.79
70902;BME280;58548;47.210;8.618;2023-06-26T05:16:42;94344.81;;;27.28;36.62
70902;BME280;58548;47.210;8.618;2023-06-26T05:19:11;94380.03;;;27.65;36.86
70902;BME280;58548;47.210;8.618;2023-06-26T05:21:38;94297.22;;;27.20;36.01
70902;BME280;58548;47.210;8.618;2023-06-26T05:24:07;94346.22;;;27.64;36.69
70902;BME280;58548;47.210;8.618;2023-06-26T05:26:36;94387.53;;;28.01;36.31
70902;BME280;58548;47.210;8.618;2023-06-26T05:29:03;94294.94;;;27.51;35.80
70902;BME280;58548;47.210;8.618;2023-06-26T05:31:33;94391.22;;;28.24;36.06
70902;BME280;58548;47.210;8.618;2023-06-26T05:34:07;94384.00;;;28.39;36.10
70902;BME280;58548;47.210;8.618;2023-06-26T05:36:42;94272.81;;;27.93;35.90
70902;BME280;58548;47.210;8.618;2023-06-26T05:39:09;94287.00;;;28.26;35.62
70902;BME280;58548;47.210;8.618;2023-06-26T05:41:37;94306.81;;;28.58;35.76
70902;BME280;58548;47.210;8.618;2023-06-26T05:44:03;94343.75;;;29.09;35.79
70902;BME280;58548;47.210;8.618;2023-06-26T05:46:31;94294.97;;;29.01;34.62
70902;BME280;58548;47.210;8.618;2023-06-26T05:49:00;94330.94;;;29.56;34.04
70902;BME280;58548;47.210;8.618;2023-06-26T05:51:27;94385.56;;;30.16;33.83
70902;BME280;58548;47.210;8.618;2023-06-26T05:53:53;94376.41;;;30.49;33.50
70902;BME280;58548;47.210;8.618;2023-06-26T05:56:22;94383.88;;;30.83;33.04
70902;BME280;58548;47.210;8.618;2023-06-26T05:58:51;94381.75;;;31.12;32.29
70902;BME280;58548;47.210;8.618;2023-06-26T06:01:23;94341.34;;;31.21;32.24
70902;BME280;58548;47.210;8.618;2023-06-26T06:03:54;94377.94;;;31.80;31.49
70902;BME280;58548;47.210;8.618;2023-06-26T06:06:22;94393.34;;;32.14;31.10
70902;BME280;58548;47.210;8.618;2023-06-26T06:08:50;94392.69;;;32.44;30.33
70902;BME280;58548;47.210;8.618;2023-06-26T06:11:15;94398.16;;;32.74;30.00
70902;BME280;58548;47.210;8.618;2023-06-26T06:13:44;94385.09;;;32.93;30.03
70902;BME280;58548;47.210;8.618;2023-06-26T06:16:12;94386.69;;;33.25;29.56
70902;BME280;58548;47.210;8.618;2023-06-26T06:18:38;94284.25;;;32.84;29.49
70902;BME280;58548;47.210;8.618;2023-06-26T06:21:06;94330.09;;;33.41;28.28
70902;BME280;58548;47.210;8.618;2023-06-26T06:23:36;94401.22;;;34.13;27.98
70902;BME280;58548;47.210;8.618;2023-06-26T06:26:04;94399.06;;;34.40;27.25
70902;BME280;58548;47.210;8.618;2023-06-26T06:28:35;94407.09;;;34.70;27.32
70902;BME280;58548;47.210;8.618;2023-06-26T06:31:03;94315.91;;;34.32;26.71
70902;BME280;58548;47.210;8.618;2023-06-26T06:33:29;94395.41;;;35.16;27.50
70902;BME280;58548;47.210;8.618;2023-06-26T06:35:58;94374.59;;;35.32;26.44
70902;BME280;58548;47.210;8.618;2023-06-26T06:38:24;94391.31;;;35.72;26.65
70902;BME280;58548;47.210;8.618;2023-06-26T06:40:51;94387.88;;;36.00;25.82
70902;BME280;58548;47.210;8.618;2023-06-26T06:43:19;94319.94;;;35.87;25.48
70902;BME280;58548;47.210;8.618;2023-06-26T06:45:45;94391.09;;;36.62;25.47
70902;BME280;58548;47.210;8.618;2023-06-26T06:48:11;94306.13;;;36.37;24.77
70902;BME280;58548;47.210;8.618;2023-06-26T06:50:41;94317.91;;;36.73;24.27
70902;BME280;58548;47.210;8.618;2023-06-26T06:53:09;94393.72;;;37.55;23.97
70902;BME280;58548;47.210;8.618;2023-06-26T06:55:35;94403.16;;;37.77;23.81
70902;BME280;58548;47.210;8.618;2023-06-26T06:58:03;94396.53;;;37.94;23.03
70902;BME280;58548;47.210;8.618;2023-06-26T07:00:32;94313.31;;;37.61;22.66
70902;BME280;58548;47.210;8.618;2023-06-26T07:02:58;94318.03;;;37.84;22.25
70902;BME280;58548;47.210;8.618;2023-06-26T07:05:26;94353.03;;;38.21;21.96
70902;BME280;58548;47.210;8.618;2023-06-26T07:07:52;94327.78;;;38.24;21.57
70902;BME280;58548;47.210;8.618;2023-06-26T07:10:21;94406.53;;;38.88;20.98
70902;BME280;58548;47.210;8.618;2023-06-26T07:12:47;94410.97;;;38.97;21.09
70902;BME280;58548;47.210;8.618;2023-06-26T07:15:13;94407.97;;;39.05;20.93
70902;BME280;58548;47.210;8.618;2023-06-26T07:17:44;94319.72;;;38.51;20.23
70902;BME280;58548;47.210;8.618;2023-06-26T07:20:10;94406.44;;;39.08;20.14
70902;BME280;58548;47.210;8.618;2023-06-26T07:22:45;94408.03;;;39.09;20.17
70902;BME280;58548;47.210;8.618;2023-06-26T07:25:14;94384.00;;;38.95;20.01
70902;BME280;58548;47.210;8.618;2023-06-26T07:27:43;94393.81;;;39.00;20.22
70902;BME280;58548;47.210;8.618;2023-06-26T07:30:10;94325.19;;;38.51;19.93
70902;BME280;58548;47.210;8.618;2023-06-26T07:32:44;94342.81;;;38.57;20.33
70902;BME280;58548;47.210;8.618;2023-06-26T07:35:10;94393.00;;;38.96;20.11
70902;BME280;58548;47.210;8.618;2023-06-26T07:37:36;94407.66;;;39.11;20.20
70902;BME280;58548;47.210;8.618;2023-06-26T07:40:04;94364.44;;;38.89;20.36
70902;BME280;58548;47.210;8.618;2023-06-26T07:42:30;94338.72;;;38.90;20.19
70902;BME280;58548;47.210;8.618;2023-06-26T07:44:59;94408.91;;;39.67;20.22
70902;BME280;58548;47.210;8.618;2023-06-26T07:47:24;94404.69;;;40.00;20.28
70902;BME280;58548;47.210;8.618;2023-06-26T07:49:50;94403.56;;;40.35;19.57
70902;BME280;58548;47.210;8.618;2023-06-26T07:52:18;94389.78;;;40.62;18.93
70902;BME280;58548;47.210;8.618;2023-06-26T07:54:47;94331.13;;;40.63;17.72
70902;BME280;58548;47.210;8.618;2023-06-26T07:57:15;94339.28;;;41.01;17.29
70902;BME280;58548;47.210;8.618;2023-06-26T07:59:43;94417.41;;;41.88;17.07
70902;BME280;58548;47.210;8.618;2023-06-26T08:02:11;94413.25;;;42.24;16.71
70902;BME280;58548;47.210;8.618;2023-06-26T08:04:37;94355.22;;;42.11;16.52
70902;BME280;58548;47.210;8.618;2023-06-26T08:07:03;94404.38;;;42.74;15.43
70902;BME280;58548;47.210;8.618;2023-06-26T08:09:30;94411.09;;;43.05;15.06
70902;BME280;58548;47.210;8.618;2023-06-26T08:11:59;94417.03;;;43.36;14.90
70902;BME280;58548;47.210;8.618;2023-06-26T08:14:25;94412.66;;;43.61;14.39
70902;BME280;58548;47.210;8.618;2023-06-26T08:16:53;94413.06;;;43.81;14.32
70902;BME280;58548;47.210;8.618;2023-06-26T08:19:22;94383.59;;;43.85;14.49
70902;BME280;58548;47.210;8.618;2023-06-26T08:21:50;94395.28;;;44.11;14.18
70902;BME280;58548;47.210;8.618;2023-06-26T08:24:18;94409.66;;;44.55;13.89
70902;BME280;58548;47.210;8.618;2023-06-26T08:26:46;94333.44;;;44.34;13.51
70902;BME280;58548;47.210;8.618;2023-06-26T08:29:14;94326.28;;;44.51;12.79
70902;BME280;58548;47.210;8.618;2023-06-26T08:31:43;94355.19;;;44.84;12.94
70902;BME280;58548;47.210;8.618;2023-06-26T08:34:09;94409.06;;;45.42;12.82
70902;BME280;58548;47.210;8.618;2023-06-26T08:36:35;94406.53;;;45.58;12.25
70902;BME280;58548;47.210;8.618;2023-06-26T08:39:06;94339.41;;;45.34;12.35
70902;BME280;58548;47.210;8.618;2023-06-26T08:41:36;94409.25;;;46.00;11.98
70902;BME280;58548;47.210;8.618;2023-06-26T08:44:05;94326.09;;;45.67;11.97
70902;BME280;58548;47.210;8.618;2023-06-26T08:46:34;94405.34;;;46.32;12.03
70902;BME280;58548;47.210;8.618;2023-06-26T08:49:21;94384.38;;;46.39;11.48
70902;BME280;58548;47.210;8.618;2023-06-26T08:51:59;94313.44;;;46.04;11.53
70902;BME280;58548;47.210;8.618;2023-06-26T08:54:36;94347.28;;;46.40;10.97
70902;BME280;58548;47.210;8.618;2023-06-26T08:57:05;94345.25;;;46.44;11.10
70902;BME280;58548;47.210;8.618;2023-06-26T08:59:33;94406.59;;;46.86;11.31
70902;BME280;58548;47.210;8.618;2023-06-26T09:01:59;94407.69;;;46.92;11.73
70902;BME280;58548;47.210;8.618;2023-06-26T09:04:25;94309.44;;;46.36;11.42
70902;BME280;58548;47.210;8.618;2023-06-26T09:06:51;94268.66;;;46.20;11.50
70902;BME280;58548;47.210;8.618;2023-06-26T09:09:17;94317.91;;;46.53;11.25
70902;BME280;58548;47.210;8.618;2023-06-26T09:11:46;94338.84;;;46.78;11.28
70902;BME280;58548;47.210;8.618;2023-06-26T09:14:14;94307.47;;;46.64;11.36
70902;BME280;58548;47.210;8.618;2023-06-26T09:16:43;94323.72;;;46.86;11.53
70902;BME280;58548;47.210;8.618;2023-06-26T09:19:12;94401.38;;;47.43;11.39
70902;BME280;58548;47.210;8.618;2023-06-26T09:21:40;94338.19;;;47.18;10.92
70902;BME280;58548;47.210;8.618;2023-06-26T09:24:09;94393.50;;;47.65;11.12
70902;BME280;58548;47.210;8.618;2023-06-26T09:26:37;94341.59;;;47.49;10.52
70902;BME280;58548;47.210;8.618;2023-06-26T09:29:04;94336.69;;;47.61;11.35
70902;BME280;58548;47.210;8.618;2023-06-26T09:31:31;94383.38;;;47.99;11.14
70902;BME280;58548;47.210;8.618;2023-06-26T09:33:59;94417.44;;;48.36;11.36
70902;BME280;58548;47.210;8.618;2023-06-26T09:36:33;94412.47;;;48.48;10.46
70902;BME280;58548;47.210;8.618;2023-06-26T09:39:06;94334.47;;;48.12;10.78
70902;BME280;58548;47.210;8.618;2023-06-26T09:41:37;94344.03;;;48.28;10.51
70902;BME280;58548;47.210;8.618;2023-06-26T09:44:04;94407.44;;;48.79;10.36
70902;BME280;58548;47.210;8.618;2023-06-26T09:46:34;94404.09;;;48.68;10.06
70902;BME280;58548;47.210;8.618;2023-06-26T09:49:13;94382.69;;;48.52;9.91
70902;BME280;58548;47.210;8.618;2023-06-26T09:51:42;94328.91;;;48.12;10.06
70902;BME280;58548;47.210;8.618;2023-06-26T09:54:10;94307.53;;;47.96;10.63
70902;BME280;58548;47.210;8.618;2023-06-26T09:56:36;94389.22;;;48.62;10.38
70902;BME280;58548;47.210;8.618;2023-06-26T09:59:04;94328.97;;;48.29;10.38
70902;BME280;58548;47.210;8.618;2023-06-26T10:01:33;94393.50;;;48.83;10.05
70902;BME280;58548;47.210;8.618;2023-06-26T10:04:01;94395.06;;;49.00;10.60
70902;BME280;58548;47.210;8.618;2023-06-26T10:06:35;94321.94;;;48.61;10.09
70902;BME280;58548;47.210;8.618;2023-06-26T10:09:03;94392.56;;;49.23;10.54
70902;BME280;58548;47.210;8.618;2023-06-26T10:11:47;94356.44;;;49.10;9.99
70902;BME280;58548;47.210;8.618;2023-06-26T10:14:16;94382.31;;;49.36;10.04
70902;BME280;58548;47.210;8.618;2023-06-26T10:16:50;94321.78;;;49.01;10.69
70902;BME280;58548;47.210;8.618;2023-06-26T10:19:18;94392.34;;;49.63;10.63
70902;BME280;58548;47.210;8.618;2023-06-26T10:21:55;94368.66;;;49.58;9.73
70902;BME280;58548;47.210;8.618;2023-06-26T10:24:28;94299.94;;;49.20;9.33
70902;BME280;58548;47.210;8.618;2023-06-26T10:27:02;94391.94;;;49.77;9.45
70902;BME280;58548;47.210;8.618;2023-06-26T10:29:39;94354.50;;;49.56;9.77
70902;BME280;58548;47.210;8.618;2023-06-26T10:32:10;94365.72;;;49.65;9.50
70902;BME280;58548;47.210;8.618;2023-06-26T10:34:36;94345.59;;;49.61;9.16
70902;BME280;58548;47.210;8.618;2023-06-26T10:37:04;94309.75;;;49.38;9.63
70902;BME280;58548;47.210;8.618;2023-06-26T10:40:03;94391.72;;;50.01;9.01
70902;BME280;58548;47.210;8.618;2023-06-26T10:42:41;94393.16;;;50.06;8.82
70902;BME280;58548;47.210;8.618;2023-06-26T10:47:46;94389.28;;;50.03;8.63
70902;BME280;58548;47.210;8.618;2023-06-26T10:50:24;94394.50;;;50.01;8.67
70902;BME280;58548;47.210;8.618;2023-06-26T10:56:04;94384.44;;;49.78;8.69
70902;BME280;58548;47.210;8.618;2023-06-26T11:03:39;94309.91;;;49.17;8.82
70902;BME280;58548;47.210;8.618;2023-06-26T11:06:16;94386.56;;;49.57;8.34
70902;BME280;58548;47.210;8.618;2023-06-26T11:11:16;94309.78;;;48.38;9.29
70902;BME280;58548;47.210;8.618;2023-06-26T11:13:45;94377.31;;;48.44;9.45
70902;BME280;58548;47.210;8.618;2023-06-26T11:16:15;94372.31;;;48.19;9.54
70902;BME280;58548;47.210;8.618;2023-06-26T11:18:46;94328.84;;;47.55;9.64
70902;BME280;58548;47.210;8.618;2023-06-26T11:21:20;94365.44;;;47.43;10.07
70902;BME280;58548;47.210;8.618;2023-06-26T11:23:49;94287.22;;;46.47;10.57
70902;BME280;58548;47.210;8.618;2023-06-26T11:26:21;94306.66;;;46.09;10.19
70902;BME280;58548;47.210;8.618;2023-06-26T11:28:53;94376.63;;;46.26;10.67
70902;BME280;58548;47.210;8.618;2023-06-26T11:31:40;94292.19;;;45.32;11.05
70902;BME280;58548;47.210;8.618;2023-06-26T11:34:09;94382.16;;;45.53;11.34
70902;BME280;58548;47.210;8.618;2023-06-26T11:36:41;94377.72;;;45.21;11.33
70902;BME280;58548;47.210;8.618;2023-06-26T11:39:08;94378.78;;;44.85;11.56
70902;BME280;58548;47.210;8.618;2023-06-26T11:41:39;94342.88;;;44.33;11.57
70902;BME280;58548;47.210;8.618;2023-06-26T11:44:07;94341.06;;;44.01;12.32
70902;BME280;58548;47.210;8.618;2023-06-26T11:46:37;94389.00;;;44.07;13.03
70902;BME280;58548;47.210;8.618;2023-06-26T11:49:06;94369.81;;;43.85;12.77
70902;BME280;58548;47.210;8.618;2023-06-26T11:51:33;94293.38;;;43.22;12.32
70902;BME280;58548;47.210;8.618;2023-06-26T11:54:05;94378.50;;;43.65;12.55
70902;BME280;58548;47.210;8.618;2023-06-26T11:56:33;94297.72;;;42.94;12.58
70902;BME280;58548;47.210;8.618;2023-06-26T11:59:07;94372.28;;;43.29;13.24
70902;BME280;58548;47.210;8.618;2023-06-26T12:04:02;94272.59;;;42.59;13.74
70902;BME280;58548;47.210;8.618;2023-06-26T12:06:36;94292.22;;;42.79;13.41
70902;BME280;58548;47.210;8.618;2023-06-26T12:09:09;94324.38;;;43.04;13.73
70902;BME280;58548;47.210;8.618;2023-06-26T12:11:42;94350.28;;;43.32;13.80
70902;BME280;58548;47.210;8.618;2023-06-26T12:14:14;94351.84;;;43.44;13.75
70902;BME280;58548;47.210;8.618;2023-06-26T12:16:40;94360.06;;;43.55;13.55
70902;BME280;58548;47.210;8.618;2023-06-26T12:19:08;94333.75;;;43.50;13.69
70902;BME280;58548;47.210;8.618;2023-06-26T12:24:04;94369.06;;;43.66;12.71
70902;BME280;58548;47.210;8.618;2023-06-26T12:26:33;94338.91;;;43.30;12.76
70902;BME280;58548;47.210;8.618;2023-06-26T12:29:09;94360.50;;;43.32;13.42
70902;BME280;58548;47.210;8.618;2023-06-26T12:31:42;94354.19;;;43.13;12.98
70902;BME280;58548;47.210;8.618;2023-06-26T12:34:14;94348.72;;;42.95;13.62
70902;BME280;58548;47.210;8.618;2023-06-26T12:36:47;94356.19;;;42.87;13.85
70902;BME280;58548;47.210;8.618;2023-06-26T12:39:19;94316.91;;;42.47;14.59
70902;BME280;58548;47.210;8.618;2023-06-26T12:41:45;94367.88;;;42.59;15.48
70902;BME280;58548;47.210;8.618;2023-06-26T12:44:28;94351.81;;;42.46;16.62
70902;BME280;58548;47.210;8.618;2023-06-26T12:47:01;94356.50;;;42.42;16.75
70902;BME280;58548;47.210;8.618;2023-06-26T12:49:36;94285.44;;;42.01;17.08
70902;BME280;58548;47.210;8.618;2023-06-26T12:52:09;94360.47;;;42.70;16.94
70902;BME280;58548;47.210;8.618;2023-06-26T12:54:37;94291.81;;;42.41;16.63
70902;BME280;58548;47.210;8.618;2023-06-26T12:57:04;94362.06;;;42.86;16.19
70902;BME280;58548;47.210;8.618;2023-06-26T12:59:33;94364.41;;;42.84;16.45
70902;BME280;58548;47.210;8.618;2023-06-26T13:02:02;94365.19;;;42.88;16.75
70902;BME280;58548;47.210;8.618;2023-06-26T13:04:29;94216.06;;;41.97;16.93
70902;BME280;58548;47.210;8.618;2023-06-26T13:06:58;94335.38;;;42.75;16.48
70902;BME280;58548;47.210;8.618;2023-06-26T13:09:25;94264.72;;;42.29;16.59
70902;BME280;58548;47.210;8.618;2023-06-26T13:11:51;94311.44;;;42.72;16.71
70902;BME280;58548;47.210;8.618;2023-06-26T13:14:18;94281.25;;;42.58;16.80
70902;BME280;58548;47.210;8.618;2023-06-26T13:16:46;94351.84;;;43.12;16.98
70902;BME280;58548;47.210;8.618;2023-06-26T13:19:14;94344.78;;;43.11;17.15
70902;BME280;58548;47.210;8.618;2023-06-26T13:21:40;94278.88;;;42.67;17.08
70902;BME280;58548;47.210;8.618;2023-06-26T13:24:09;94253.78;;;42.47;16.50
70902;BME280;58548;47.210;8.618;2023-06-26T13:26:37;94346.34;;;43.04;16.81
70902;BME280;58548;47.210;8.618;2023-06-26T13:29:08;94335.00;;;42.95;17.06
70902;BME280;58548;47.210;8.618;2023-06-26T13:31:39;94321.25;;;42.88;16.96
70902;BME280;58548;47.210;8.618;2023-06-26T13:34:04;94269.47;;;42.54;16.62